MRC668 KBNA-KLCK
Flight info
| Callsign | MRC668 |
|---|---|
| Flight time | 0h 53m |
| Altitude | 39000 |
| Route | KRSTA4 KRSTA |
| Aircraft | A319/M-SDE3FGHIRWY/LB1 |
Departure
| Time | 2026-05-03 22:54 |
|---|---|
| Airport | Nashville International Airport (KBNA) |
Arrival
| Time | 2026-05-03 23:47 |
|---|---|
| Airport | Rickenbacker International Airport (KLCK) |
| Time | Latitude | Longitude | Altitude | Speed | Heading |
|---|---|---|---|---|---|
| 2026-05-03 21:46 | 36.12047 | -86.67236 | 575 ft | 0 kts | 184° |
| 2026-05-03 22:26 | 36.12062 | -86.67234 | 578 ft | 4 kts | 204° |
| 2026-05-03 22:26 | 36.12079 | -86.67213 | 575 ft | 4 kts | 256° |
| 2026-05-03 22:26 | 36.12082 | -86.67181 | 575 ft | 4 kts | 272° |
| 2026-05-03 22:26 | 36.12081 | -86.67172 | 575 ft | 0 kts | 273° |
| 2026-05-03 22:30 | 36.12250 | -86.68822 | 575 ft | 0 kts | 288° |
| 2026-05-03 22:32 | 36.12045 | -86.67236 | 577 ft | 0 kts | 184° |
| 2026-05-03 22:34 | 36.12066 | -86.67232 | 576 ft | 4 kts | 209° |
| 2026-05-03 22:34 | 36.12082 | -86.67211 | 575 ft | 4 kts | 265° |
| 2026-05-03 22:34 | 36.12082 | -86.67203 | 575 ft | 0 kts | 273° |
| 2026-05-03 22:48 | 36.12082 | -86.67208 | 575 ft | 3 kts | 273° |
| 2026-05-03 22:48 | 36.12083 | -86.67252 | 575 ft | 7 kts | 266° |
| 2026-05-03 22:48 | 36.12082 | -86.67306 | 575 ft | 5 kts | 273° |
| 2026-05-03 22:49 | 36.12085 | -86.67340 | 575 ft | 3 kts | 276° |
| 2026-05-03 22:49 | 36.12089 | -86.67364 | 575 ft | 3 kts | 283° |
| 2026-05-03 22:49 | 36.12104 | -86.67393 | 577 ft | 7 kts | 314° |
| 2026-05-03 22:49 | 36.12154 | -86.67401 | 575 ft | 7 kts | 5° |
| 2026-05-03 22:50 | 36.12203 | -86.67396 | 579 ft | 7 kts | 2° |
| 2026-05-03 22:50 | 36.12264 | -86.67403 | 578 ft | 10 kts | 337° |
| 2026-05-03 22:50 | 36.12314 | -86.67460 | 575 ft | 8 kts | 313° |
| 2026-05-03 22:50 | 36.12342 | -86.67498 | 575 ft | 4 kts | 313° |
| 2026-05-03 22:51 | 36.12355 | -86.67515 | 578 ft | 1 kts | 313° |
| 2026-05-03 22:51 | 36.12375 | -86.67541 | 577 ft | 9 kts | 313° |
| 2026-05-03 22:51 | 36.12423 | -86.67602 | 575 ft | 9 kts | 313° |
| 2026-05-03 22:51 | 36.12423 | -86.67678 | 575 ft | 13 kts | 221° |
| 2026-05-03 22:52 | 36.12349 | -86.67727 | 578 ft | 10 kts | 252° |
| 2026-05-03 22:52 | 36.12371 | -86.67815 | 576 ft | 11 kts | 289° |
| 2026-05-03 22:52 | 36.12391 | -86.67889 | 576 ft | 7 kts | 288° |
| 2026-05-03 22:52 | 36.12390 | -86.67943 | 575 ft | 7 kts | 240° |
| 2026-05-03 22:53 | 36.12357 | -86.67989 | 575 ft | 8 kts | 192° |
| 2026-05-03 22:53 | 36.12277 | -86.68021 | 575 ft | 20 kts | 198° |
| 2026-05-03 22:53 | 36.11903 | -86.68172 | 575 ft | 98 kts | 198° |
| 2026-05-03 22:53 | 36.11020 | -86.68539 | 769 ft | 151 kts | 200° |
| 2026-05-03 22:54 | 36.10044 | -86.68931 | 1710 ft | 152 kts | 200° |
| 2026-05-03 22:54 | 36.09041 | -86.69499 | 2413 ft | 168 kts | 219° |
| 2026-05-03 22:54 | 36.08329 | -86.70680 | 2954 ft | 183 kts | 248° |
| 2026-05-03 22:54 | 36.08079 | -86.72334 | 3313 ft | 211 kts | 261° |
| 2026-05-03 22:55 | 36.07849 | -86.73578 | 3610 ft | 229 kts | 248° |
| 2026-05-03 22:55 | 36.07197 | -86.75479 | 4275 ft | 249 kts | 250° |
| 2026-05-03 22:55 | 36.06860 | -86.77574 | 5300 ft | 256 kts | 268° |
| 2026-05-03 22:55 | 36.07072 | -86.79779 | 6370 ft | 261 kts | 284° |
| 2026-05-03 22:56 | 36.07528 | -86.81967 | 6857 ft | 263 kts | 285° |
| 2026-05-03 22:56 | 36.08022 | -86.84144 | 7088 ft | 264 kts | 292° |
| 2026-05-03 22:56 | 36.09053 | -86.86011 | 8075 ft | 267 kts | 317° |
| 2026-05-03 22:56 | 36.10681 | -86.87139 | 9087 ft | 275 kts | 346° |
| 2026-05-03 22:57 | 36.12606 | -86.87101 | 10125 ft | 283 kts | 10° |
| 2026-05-03 22:57 | 36.14595 | -86.86509 | 10637 ft | 307 kts | 12° |
| 2026-05-03 22:57 | 36.16731 | -86.85864 | 11261 ft | 322 kts | 11° |
| 2026-05-03 22:57 | 36.18937 | -86.85217 | 12167 ft | 328 kts | 11° |
| 2026-05-03 22:58 | 36.21170 | -86.84559 | 13138 ft | 332 kts | 10° |
| 2026-05-03 22:58 | 36.23432 | -86.83899 | 14061 ft | 336 kts | 10° |
| 2026-05-03 22:58 | 36.25716 | -86.83235 | 14732 ft | 339 kts | 10° |
| 2026-05-03 22:58 | 36.28020 | -86.82559 | 14937 ft | 340 kts | 10° |
| 2026-05-03 22:59 | 36.30339 | -86.81878 | 15386 ft | 344 kts | 10° |
| 2026-05-03 22:59 | 36.32557 | -86.80946 | 16807 ft | 331 kts | 19° |
| 2026-05-03 22:59 | 36.34597 | -86.79556 | 17617 ft | 345 kts | 29° |
| 2026-05-03 22:59 | 36.36456 | -86.77552 | 18009 ft | 368 kts | 42° |
| 2026-05-03 23:00 | 36.38154 | -86.75149 | 18648 ft | 375 kts | 44° |
| 2026-05-03 23:00 | 36.39910 | -86.72665 | 19332 ft | 380 kts | 43° |
| 2026-05-03 23:00 | 36.41686 | -86.70199 | 19977 ft | 386 kts | 43° |
| 2026-05-03 23:00 | 36.43463 | -86.67731 | 20622 ft | 391 kts | 43° |
| 2026-05-03 23:01 | 36.45287 | -86.65194 | 21253 ft | 397 kts | 43° |
| 2026-05-03 23:01 | 36.47137 | -86.62624 | 21934 ft | 401 kts | 43° |
| 2026-05-03 23:01 | 36.49004 | -86.60021 | 22588 ft | 406 kts | 43° |
| 2026-05-03 23:01 | 36.50895 | -86.57382 | 23229 ft | 411 kts | 43° |
| 2026-05-03 23:02 | 36.52813 | -86.54713 | 23801 ft | 417 kts | 43° |
| 2026-05-03 23:02 | 36.54757 | -86.52004 | 24313 ft | 422 kts | 43° |
| 2026-05-03 23:02 | 36.56780 | -86.49348 | 24839 ft | 423 kts | 37° |
| 2026-05-03 23:02 | 36.59089 | -86.47127 | 25374 ft | 418 kts | 26° |
| 2026-05-03 23:03 | 36.61658 | -86.45483 | 25899 ft | 414 kts | 17° |
| 2026-05-03 23:03 | 36.64332 | -86.44136 | 26413 ft | 416 kts | 16° |
| 2026-05-03 23:03 | 36.67027 | -86.42776 | 26929 ft | 419 kts | 16° |
| 2026-05-03 23:03 | 36.69741 | -86.41401 | 27455 ft | 423 kts | 16° |
| 2026-05-03 23:04 | 36.72427 | -86.39834 | 27969 ft | 432 kts | 24° |
| 2026-05-03 23:04 | 36.74941 | -86.37710 | 28470 ft | 442 kts | 32° |
| 2026-05-03 23:04 | 36.77361 | -86.35310 | 28948 ft | 446 kts | 32° |
| 2026-05-03 23:04 | 36.79792 | -86.32880 | 29417 ft | 450 kts | 32° |
| 2026-05-03 23:05 | 36.82244 | -86.30432 | 29877 ft | 453 kts | 32° |
| 2026-05-03 23:05 | 36.84724 | -86.27983 | 30307 ft | 456 kts | 32° |
| 2026-05-03 23:05 | 36.87218 | -86.25507 | 30689 ft | 459 kts | 32° |
| 2026-05-03 23:05 | 36.89729 | -86.23015 | 31096 ft | 462 kts | 32° |
| 2026-05-03 23:06 | 36.92250 | -86.20509 | 31456 ft | 465 kts | 32° |
| 2026-05-03 23:06 | 36.94785 | -86.17980 | 31850 ft | 468 kts | 32° |
| 2026-05-03 23:06 | 36.97342 | -86.15441 | 32184 ft | 471 kts | 31° |
| 2026-05-03 23:06 | 36.99871 | -86.12917 | 32627 ft | 471 kts | 32° |
| 2026-05-03 23:07 | 37.02460 | -86.10320 | 33123 ft | 470 kts | 31° |
| 2026-05-03 23:07 | 37.04980 | -86.07812 | 33624 ft | 469 kts | 31° |
| 2026-05-03 23:07 | 37.07527 | -86.05269 | 34123 ft | 468 kts | 31° |
| 2026-05-03 23:07 | 37.10072 | -86.02728 | 34553 ft | 467 kts | 31° |
| 2026-05-03 23:08 | 37.12610 | -86.00190 | 34986 ft | 467 kts | 31° |
| 2026-05-03 23:08 | 37.15149 | -85.97641 | 35414 ft | 467 kts | 31° |
| 2026-05-03 23:08 | 37.17687 | -85.95095 | 35836 ft | 467 kts | 31° |
| 2026-05-03 23:08 | 37.20223 | -85.92541 | 36239 ft | 468 kts | 31° |
| 2026-05-03 23:09 | 37.22762 | -85.89993 | 36639 ft | 468 kts | 31° |
| 2026-05-03 23:09 | 37.25305 | -85.87436 | 37025 ft | 468 kts | 31° |
| 2026-05-03 23:09 | 37.27850 | -85.84885 | 37417 ft | 468 kts | 31° |
| 2026-05-03 23:09 | 37.30392 | -85.82330 | 37777 ft | 468 kts | 32° |
| 2026-05-03 23:10 | 37.32933 | -85.79769 | 38143 ft | 468 kts | 32° |
| 2026-05-03 23:10 | 37.35474 | -85.77208 | 38507 ft | 468 kts | 32° |
| 2026-05-03 23:10 | 37.38016 | -85.74642 | 38825 ft | 468 kts | 32° |
| 2026-05-03 23:10 | 37.40556 | -85.72077 | 39060 ft | 470 kts | 32° |
| 2026-05-03 23:11 | 37.43111 | -85.69485 | 39083 ft | 472 kts | 32° |
| 2026-05-03 23:11 | 37.48219 | -85.64288 | 39073 ft | 472 kts | 32° |
| 2026-05-03 23:12 | 37.53337 | -85.59108 | 39073 ft | 472 kts | 32° |
| 2026-05-03 23:12 | 37.58453 | -85.53907 | 39064 ft | 472 kts | 32° |
| 2026-05-03 23:13 | 37.63565 | -85.48693 | 39086 ft | 473 kts | 32° |
| 2026-05-03 23:13 | 37.68681 | -85.43466 | 39069 ft | 473 kts | 32° |
| 2026-05-03 23:14 | 37.73769 | -85.38276 | 39062 ft | 474 kts | 32° |
| 2026-05-03 23:14 | 37.78893 | -85.33030 | 39053 ft | 474 kts | 32° |
| 2026-05-03 23:15 | 37.84019 | -85.27762 | 39055 ft | 475 kts | 32° |
| 2026-05-03 23:15 | 37.89146 | -85.22488 | 39082 ft | 475 kts | 32° |
| 2026-05-03 23:16 | 37.94279 | -85.17204 | 39059 ft | 476 kts | 32° |
| 2026-05-03 23:16 | 37.99414 | -85.11910 | 39053 ft | 476 kts | 32° |
| 2026-05-03 23:17 | 38.04549 | -85.06594 | 39047 ft | 476 kts | 32° |
| 2026-05-03 23:17 | 38.09686 | -85.01270 | 39079 ft | 477 kts | 32° |
| 2026-05-03 23:18 | 38.14828 | -84.95943 | 39063 ft | 477 kts | 32° |
| 2026-05-03 23:18 | 38.19968 | -84.90593 | 39043 ft | 478 kts | 32° |
| 2026-05-03 23:19 | 38.25113 | -84.85239 | 39049 ft | 478 kts | 32° |
| 2026-05-03 23:19 | 38.30262 | -84.79872 | 39046 ft | 479 kts | 32° |
| 2026-05-03 23:20 | 38.35408 | -84.74492 | 39044 ft | 479 kts | 33° |
| 2026-05-03 23:20 | 38.40548 | -84.69089 | 39039 ft | 479 kts | 32° |
| 2026-05-03 23:21 | 38.45697 | -84.63702 | 39036 ft | 479 kts | 32° |
| 2026-05-03 23:21 | 38.50840 | -84.58288 | 39034 ft | 479 kts | 32° |
| 2026-05-03 23:22 | 38.58528 | -84.50191 | 39078 ft | 479 kts | 32° |
| 2026-05-03 23:22 | 38.63665 | -84.44752 | 39065 ft | 480 kts | 33° |
| 2026-05-03 23:23 | 38.68801 | -84.39306 | 39060 ft | 479 kts | 33° |
| 2026-05-03 23:23 | 38.73936 | -84.33859 | 39055 ft | 479 kts | 33° |
| 2026-05-03 23:24 | 38.79070 | -84.28415 | 39071 ft | 479 kts | 33° |
| 2026-05-03 23:24 | 38.84199 | -84.22952 | 39059 ft | 479 kts | 33° |
| 2026-05-03 23:25 | 38.89333 | -84.17488 | 39047 ft | 479 kts | 33° |
| 2026-05-03 23:25 | 38.94451 | -84.12001 | 39039 ft | 479 kts | 33° |
| 2026-05-03 23:26 | 38.99576 | -84.06518 | 39077 ft | 479 kts | 33° |
| 2026-05-03 23:26 | 39.04690 | -84.01021 | 39066 ft | 479 kts | 33° |
| 2026-05-03 23:27 | 39.09801 | -83.95526 | 39060 ft | 478 kts | 33° |
| 2026-05-03 23:27 | 39.14906 | -83.90024 | 39063 ft | 478 kts | 33° |
| 2026-05-03 23:28 | 39.20011 | -83.84518 | 39082 ft | 478 kts | 33° |
| 2026-05-03 23:28 | 39.25108 | -83.79009 | 39083 ft | 478 kts | 33° |
| 2026-05-03 23:29 | 39.30195 | -83.73500 | 39077 ft | 477 kts | 34° |
| 2026-05-03 23:29 | 39.35271 | -83.67969 | 39073 ft | 477 kts | 33° |
| 2026-05-03 23:30 | 39.40344 | -83.62452 | 39045 ft | 477 kts | 33° |
| 2026-05-03 23:30 | 39.45385 | -83.56970 | 39073 ft | 476 kts | 33° |
| 2026-05-03 23:31 | 39.47916 | -83.54215 | 38955 ft | 476 kts | 33° |
| 2026-05-03 23:31 | 39.50486 | -83.51405 | 37691 ft | 481 kts | 33° |
| 2026-05-03 23:31 | 39.53067 | -83.48569 | 36230 ft | 490 kts | 33° |
| 2026-05-03 23:31 | 39.55646 | -83.45746 | 34970 ft | 493 kts | 32° |
| 2026-05-03 23:32 | 39.58104 | -83.42588 | 33744 ft | 507 kts | 46° |
| 2026-05-03 23:32 | 39.59910 | -83.38530 | 32356 ft | 522 kts | 63° |
| 2026-05-03 23:32 | 39.61055 | -83.34103 | 30757 ft | 529 kts | 68° |
| 2026-05-03 23:32 | 39.62101 | -83.29497 | 28927 ft | 534 kts | 69° |
| 2026-05-03 23:33 | 39.63180 | -83.24879 | 26989 ft | 535 kts | 68° |
| 2026-05-03 23:33 | 39.64285 | -83.20273 | 25044 ft | 535 kts | 69° |
| 2026-05-03 23:33 | 39.65366 | -83.15669 | 23652 ft | 527 kts | 70° |
| 2026-05-03 23:33 | 39.66270 | -83.11142 | 22324 ft | 512 kts | 73° |
| 2026-05-03 23:34 | 39.67106 | -83.06711 | 21031 ft | 498 kts | 73° |
| 2026-05-03 23:34 | 39.67919 | -83.02398 | 19793 ft | 486 kts | 73° |
| 2026-05-03 23:34 | 39.68714 | -82.98181 | 18624 ft | 475 kts | 72° |
| 2026-05-03 23:34 | 39.69497 | -82.94062 | 17371 ft | 465 kts | 72° |
| 2026-05-03 23:35 | 39.70561 | -82.90189 | 16193 ft | 447 kts | 57° |
| 2026-05-03 23:35 | 39.72280 | -82.86925 | 15064 ft | 432 kts | 48° |
| 2026-05-03 23:35 | 39.74123 | -82.83877 | 13938 ft | 426 kts | 47° |
| 2026-05-03 23:35 | 39.75951 | -82.80891 | 12778 ft | 418 kts | 47° |
| 2026-05-03 23:36 | 39.77746 | -82.77958 | 11620 ft | 410 kts | 48° |
| 2026-05-03 23:36 | 39.79522 | -82.75103 | 10438 ft | 403 kts | 47° |
| 2026-05-03 23:36 | 39.81288 | -82.72322 | 9153 ft | 396 kts | 48° |
| 2026-05-03 23:36 | 39.83065 | -82.69616 | 7775 ft | 391 kts | 47° |
| 2026-05-03 23:37 | 39.84843 | -82.66972 | 6447 ft | 385 kts | 47° |
| 2026-05-03 23:37 | 39.86613 | -82.64395 | 5086 ft | 378 kts | 47° |
| 2026-05-03 23:37 | 39.88339 | -82.61890 | 4337 ft | 359 kts | 47° |
| 2026-05-03 23:37 | 39.89937 | -82.59570 | 4061 ft | 330 kts | 47° |
| 2026-05-03 23:38 | 39.91547 | -82.57661 | 3918 ft | 299 kts | 28° |
| 2026-05-03 23:38 | 39.93400 | -82.56852 | 3794 ft | 270 kts | 360° |
| 2026-05-03 23:38 | 39.95151 | -82.57220 | 3655 ft | 245 kts | 329° |
| 2026-05-03 23:38 | 39.96460 | -82.58463 | 3532 ft | 226 kts | 313° |
| 2026-05-03 23:39 | 39.97589 | -82.59792 | 3401 ft | 217 kts | 312° |
| 2026-05-03 23:39 | 39.98673 | -82.61103 | 3258 ft | 206 kts | 306° |
| 2026-05-03 23:39 | 39.99428 | -82.62603 | 3121 ft | 192 kts | 288° |
| 2026-05-03 23:39 | 39.99786 | -82.64243 | 3040 ft | 185 kts | 273° |
| 2026-05-03 23:40 | 39.99799 | -82.65863 | 3001 ft | 173 kts | 261° |
| 2026-05-03 23:40 | 39.99536 | -82.67375 | 2973 ft | 169 kts | 249° |
| 2026-05-03 23:40 | 39.99055 | -82.68750 | 2974 ft | 165 kts | 240° |
| 2026-05-03 23:40 | 39.98410 | -82.69988 | 2975 ft | 166 kts | 232° |
| 2026-05-03 23:41 | 39.97636 | -82.71123 | 2981 ft | 168 kts | 227° |
| 2026-05-03 23:41 | 39.96820 | -82.72203 | 2984 ft | 166 kts | 227° |
| 2026-05-03 23:41 | 39.96012 | -82.73270 | 2983 ft | 165 kts | 227° |
| 2026-05-03 23:41 | 39.95204 | -82.74337 | 2984 ft | 165 kts | 227° |
| 2026-05-03 23:42 | 39.94397 | -82.75403 | 2978 ft | 165 kts | 227° |
| 2026-05-03 23:42 | 39.93588 | -82.76469 | 2981 ft | 166 kts | 226° |
| 2026-05-03 23:42 | 39.92775 | -82.77542 | 2984 ft | 166 kts | 226° |
| 2026-05-03 23:42 | 39.91964 | -82.78610 | 2982 ft | 166 kts | 226° |
| 2026-05-03 23:43 | 39.91164 | -82.79665 | 2982 ft | 166 kts | 227° |
| 2026-05-03 23:43 | 39.90347 | -82.80741 | 2941 ft | 168 kts | 226° |
| 2026-05-03 23:43 | 39.89532 | -82.81813 | 2770 ft | 162 kts | 226° |
| 2026-05-03 23:43 | 39.88766 | -82.82820 | 2594 ft | 151 kts | 226° |
| 2026-05-03 23:44 | 39.88049 | -82.83764 | 2412 ft | 140 kts | 226° |
| 2026-05-03 23:44 | 39.87409 | -82.84605 | 2219 ft | 123 kts | 226° |
| 2026-05-03 23:44 | 39.86830 | -82.85388 | 1988 ft | 117 kts | 227° |
| 2026-05-03 23:44 | 39.86272 | -82.86137 | 1829 ft | 113 kts | 225° |
| 2026-05-03 23:45 | 39.85715 | -82.86862 | 1714 ft | 114 kts | 226° |
| 2026-05-03 23:45 | 39.85152 | -82.87597 | 1592 ft | 118 kts | 224° |
| 2026-05-03 23:45 | 39.84572 | -82.88350 | 1397 ft | 118 kts | 226° |
| 2026-05-03 23:45 | 39.84006 | -82.89092 | 1265 ft | 114 kts | 226° |
| 2026-05-03 23:46 | 39.83449 | -82.89842 | 1070 ft | 119 kts | 227° |
| 2026-05-03 23:46 | 39.83053 | -82.90358 | 966 ft | 117 kts | 226° |
| 2026-05-03 23:46 | 39.82475 | -82.91103 | 821 ft | 116 kts | 226° |
| 2026-05-03 23:46 | 39.81931 | -82.91818 | 745 ft | 100 kts | 226° |
| 2026-05-03 23:47 | 39.81534 | -82.92334 | 743 ft | 57 kts | 224° |
| 2026-05-03 23:47 | 39.81356 | -82.92561 | 744 ft | 21 kts | 225° |
| 2026-05-03 23:47 | 39.81251 | -82.92704 | 742 ft | 24 kts | 226° |
| 2026-05-03 23:47 | 39.81131 | -82.92869 | 742 ft | 26 kts | 226° |
| 2026-05-03 23:48 | 39.80998 | -82.93046 | 741 ft | 27 kts | 225° |
| 2026-05-03 23:48 | 39.80857 | -82.93223 | 741 ft | 24 kts | 225° |
| 2026-05-03 23:48 | 39.80851 | -82.93372 | 743 ft | 22 kts | 317° |
| 2026-05-03 23:48 | 39.80972 | -82.93524 | 745 ft | 27 kts | 316° |
| 2026-05-03 23:49 | 39.81119 | -82.93709 | 745 ft | 31 kts | 315° |
| 2026-05-03 23:49 | 39.81170 | -82.93841 | 742 ft | 12 kts | 224° |
| 2026-05-03 23:49 | 39.81180 | -82.93916 | 744 ft | 10 kts | 317° |
| 2026-05-03 23:49 | 39.81233 | -82.93981 | 744 ft | 11 kts | 315° |
| 2026-05-03 23:50 | 39.81291 | -82.94050 | 744 ft | 11 kts | 339° |
| 2026-05-03 23:50 | 39.81361 | -82.93995 | 744 ft | 14 kts | 39° |
| 2026-05-03 23:50 | 39.81442 | -82.94034 | 744 ft | 14 kts | 314° |
| 2026-05-03 23:50 | 39.81514 | -82.94093 | 744 ft | 8 kts | 21° |
| 2026-05-03 23:51 | 39.81522 | -82.94084 | 744 ft | 0 kts | 42° |